Tropical Cyclones
[Index]
Main Index Home Page Stock Weather Photos Extreme Storms Discussion Storm News and Storm Chasing Reports Tropical Cyclones / Hurricanes / Typhoons Weather Data and Links Wild Fires / Bushfires Weather Observation Techniques Weather Picture Catalogue Tornado Pictures and Reports Stock Video Footage and DVDs for sale
Season 1991-1992 Tropical Cyclone NEVILLE Track Map
Season 1991-1992 Summaries: [BoM-AU] [JTWC-AU] [JTWC-SIO] [JTWC-SPAC] [JTWC-SH]
<<- Previous TC | BoM 1991-1992 Season | Next TC ->>

click for intensity scale information  Lat/long Grid: Show Hide

 Date Labels: Show Hide

Bureau of Meteorology Tropical Cyclone Data

Name: NEVILLE
Number: 751 / 199192_09

07 Apr 1992 01:00 UTC to 13 Apr 1992 00:00 UTC

    date/time    lat    long    hPa   cat  kts
1992-04-07 01   10.7   132.7    994    1    45          
1992-04-07 06   10.8   132.4    988    1    45          
1992-04-07 12   10.9   131.7    987    1    45          
1992-04-07 18   11.1   130.9    986    1    50          
1992-04-07 22   11.2   130.4    980    2    55          
1992-04-08 00   11.3   130.3    975    2    60          
1992-04-08 06   11.3   129.4    965    3    65          
1992-04-08 12   11.2   129.1    950    4    80          
1992-04-08 18   11.3   128.8    945    4    85          
1992-04-09 00   11.5   128.4    950    4    80          
1992-04-09 06   11.6   128.4    950    4    80          
1992-04-09 09   11.6   128.5    952    4    78          
1992-04-09 12   11.5   128.3    954    4    75          
1992-04-09 18   11.5   128.1    958    3    70          
1992-04-10 00   11.6   128.0    960    3    70          
1992-04-10 06   11.8   127.7    962    3    65          
1992-04-10 12   11.6   127.3    966    3    65          
1992-04-10 18   11.8   126.8    970    3    65          
1992-04-11 00   11.9   126.4    972    2    60          
1992-04-11 06   11.9   125.9    974    2    60          
1992-04-11 12   11.9   125.6    976    2    60          
1992-04-11 18   11.9   125.5    978    2    55          
1992-04-12 00   11.9   125.4    980    2    50          
1992-04-12 06   11.9   125.3    982    2    45          
1992-04-12 12   12.1   125.3    984    2    40          
1992-04-12 18   12.2   125.3    988    1    35          
1992-04-13 00   12.5   125.2    994    1    35          
Winds are 10-min average.

Tropical cyclone tracks developed by Michael Bath using data from the Bureau of Meteorology and Google Maps.


[Australian Severe Weather index] [Copyright Notice] [Email Contacts] [Search This Site] [Privacy Policy]
Document: tropical_cyclone_neville.htm Updated: 30 May 2013